Time;durP1;ratioP1;P1;durP2;ratioP2;P2;SDS_P1;SDS_P2;PMS_P1;PMS_P2;Temp;Humidity;BMP_temperature;BMP_pressure;BME280_temperature;BME280_humidity;BME280_pressure;Samples;Min_cycle;Max_cycle;Signal;HPM_P1;HPM_P2
2021/09/02 00:02:04;;;;;;;35.53;20.63;;;11.80;99.90;;;;;;5050741;28;20447;-60
2021/09/02 00:04:32;;;;;;;29.23;17.20;;;11.70;99.90;;;;;;5050868;28;20486;-62
2021/09/02 00:07:00;;;;;;;25.60;18.10;;;11.70;99.90;;;;;;5054681;28;20440;-62
2021/09/02 00:09:27;;;;;;;32.10;18.90;;;11.70;99.90;;;;;;5055238;28;20939;-60
2021/09/02 00:11:54;;;;;;;24.97;16.80;;;11.70;99.90;;;;;;5055028;28;20967;-62
2021/09/02 00:14:21;;;;;;;30.90;17.37;;;11.60;99.90;;;;;;5054555;28;20467;-62
2021/09/02 00:16:49;;;;;;;25.47;16.00;;;11.60;99.90;;;;;;5055148;28;20440;-61
2021/09/02 00:19:17;;;;;;;26.00;17.20;;;11.60;99.90;;;;;;5054900;28;20455;-62
2021/09/02 00:21:44;;;;;;;29.07;19.30;;;11.60;99.90;;;;;;5054849;28;20447;-62
2021/09/02 00:24:11;;;;;;;26.13;18.43;;;11.60;99.90;;;;;;5054868;28;20495;-62
2021/09/02 00:26:40;;;;;;;34.40;19.60;;;11.50;99.90;;;;;;5055006;28;20879;-60
2021/09/02 00:29:06;;;;;;;31.97;18.40;;;11.50;99.90;;;;;;5054886;28;20452;-60
2021/09/02 00:31:33;;;;;;;26.53;17.23;;;11.50;99.90;;;;;;5054383;28;20455;-62
2021/09/02 00:34:00;;;;;;;35.47;19.70;;;11.40;99.90;;;;;;5054754;28;20471;-61
2021/09/02 00:36:28;;;;;;;28.10;17.93;;;11.40;99.90;;;;;;5054678;28;20451;-61
2021/09/02 00:38:55;;;;;;;32.93;21.53;;;11.50;99.90;;;;;;5054584;28;20959;-61
2021/09/02 00:41:21;;;;;;;27.53;17.20;;;11.40;99.90;;;;;;5054475;28;20451;-61
2021/09/02 00:43:48;;;;;;;44.77;23.03;;;11.40;99.90;;;;;;5054470;28;20458;-62
2021/09/02 00:46:16;;;;;;;32.87;19.80;;;11.40;99.90;;;;;;5054213;28;21004;-62
2021/09/02 00:48:43;;;;;;;27.40;17.53;;;11.30;99.90;;;;;;5054487;28;20454;-62
2021/09/02 00:51:10;;;;;;;32.77;17.90;;;11.30;99.90;;;;;;5054359;28;20455;-62
2021/09/02 00:53:38;;;;;;;32.00;16.53;;;11.30;99.90;;;;;;5054535;28;20435;-62
2021/09/02 00:56:06;;;;;;;43.63;21.70;;;11.30;99.90;;;;;;5054534;28;20436;-60
2021/09/02 00:58:32;;;;;;;37.03;20.47;;;11.30;99.90;;;;;;5054404;28;20456;-61
2021/09/02 01:00:59;;;;;;;40.23;21.20;;;11.30;99.90;;;;;;5054224;28;20448;-61
2021/09/02 01:03:26;;;;;;;28.13;17.80;;;11.20;99.90;;;;;;5054102;28;20456;-62
2021/09/02 01:05:53;;;;;;;34.50;17.37;;;11.20;99.90;;;;;;5054225;28;20858;-62
2021/09/02 01:08:20;;;;;;;40.47;22.30;;;11.20;99.90;;;;;;5054339;28;20455;-60
2021/09/02 01:10:49;;;;;;;41.80;22.60;;;11.20;99.90;;;;;;5054229;28;20456;-61
2021/09/02 01:13:17;;;;;;;29.13;18.60;;;11.20;99.90;;;;;;5054000;28;20502;-61
2021/09/02 01:15:43;;;;;;;45.17;24.80;;;11.10;99.90;;;;;;5054087;28;20475;-62
2021/09/02 01:18:11;;;;;;;36.90;18.40;;;11.10;99.90;;;;;;5053422;28;20944;-61
2021/09/02 01:20:38;;;;;;;35.30;20.20;;;11.10;99.90;;;;;;5053340;28;20852;-62
2021/09/02 01:23:06;;;;;;;31.87;19.73;;;11.10;99.90;;;;;;5053768;28;20868;-62
2021/09/02 01:25:40;;;;;;;35.70;19.97;;;11.10;99.90;;;;;;5054017;28;20487;-61
2021/09/02 01:28:09;;;;;;;39.83;21.57;;;11.10;99.90;;;;;;5054028;28;20467;-62
2021/09/02 01:30:37;;;;;;;35.23;19.73;;;11.00;99.90;;;;;;5053842;28;20440;-62
2021/09/02 01:33:05;;;;;;;36.10;17.73;;;11.00;99.90;;;;;;5053568;28;20843;-61
2021/09/02 01:35:32;;;;;;;33.63;19.13;;;11.00;99.90;;;;;;5053424;28;20459;-61
2021/09/02 01:38:02;;;;;;;44.30;19.77;;;11.00;99.90;;;;;;5053805;28;20447;-62
2021/09/02 01:40:31;;;;;;;36.60;21.20;;;11.00;99.90;;;;;;5053692;28;20444;-61
2021/09/02 01:43:01;;;;;;;36.40;20.13;;;11.00;99.90;;;;;;5053439;28;20445;-61
2021/09/02 01:45:27;;;;;;;41.53;20.57;;;11.00;99.90;;;;;;5053228;28;20496;-60
2021/09/02 01:47:56;;;;;;;40.37;20.13;;;11.10;99.90;;;;;;5053627;28;20448;-62
2021/09/02 01:50:24;;;;;;;43.50;20.73;;;11.10;99.90;;;;;;5053500;28;20501;-62
2021/09/02 01:52:52;;;;;;;31.27;19.20;;;11.00;99.90;;;;;;5053010;28;20448;-63
2021/09/02 01:55:20;;;;;;;41.07;20.67;;;11.00;99.90;;;;;;5053475;28;20460;-63
2021/09/02 01:57:47;;;;;;;36.13;19.40;;;11.00;99.90;;;;;;5053357;28;20440;-60
2021/09/02 02:00:17;;;;;;;32.30;18.30;;;11.00;99.90;;;;;;5053385;28;20444;-62
2021/09/02 02:02:44;;;;;;;41.40;16.67;;;11.00;99.90;;;;;;5053213;28;20849;-63
2021/09/02 02:05:12;;;;;;;32.50;16.87;;;10.90;99.90;;;;;;5053043;28;21000;-64
2021/09/02 02:07:40;;;;;;;32.30;17.90;;;11.00;99.90;;;;;;5053224;28;20442;-62
2021/09/02 02:10:09;;;;;;;41.33;21.30;;;11.00;99.90;;;;;;5052855;28;20448;-63
2021/09/02 02:12:36;;;;;;;37.50;18.90;;;11.00;99.90;;;;;;5052886;28;20440;-63
2021/09/02 02:15:04;;;;;;;36.63;21.20;;;11.00;99.90;;;;;;5052980;28;20467;-63
2021/09/02 02:17:33;;;;;;;36.90;18.33;;;11.00;99.90;;;;;;5053068;28;20460;-64
2021/09/02 02:19:59;;;;;;;32.07;17.63;;;11.00;99.90;;;;;;5052963;28;20795;-63
2021/09/02 02:22:26;;;;;;;34.07;19.50;;;11.00;99.90;;;;;;5052706;28;20436;-62
2021/09/02 02:24:53;;;;;;;34.23;17.93;;;11.10;99.90;;;;;;5052713;28;20813;-62
2021/09/02 02:27:20;;;;;;;44.33;21.20;;;11.10;99.90;;;;;;5052634;28;20486;-64
2021/09/02 02:29:46;;;;;;;38.73;17.97;;;11.20;99.90;;;;;;5051695;28;20440;-62
2021/09/02 02:32:13;;;;;;;35.50;17.93;;;11.30;99.90;;;;;;5052517;28;20443;-62
2021/09/02 02:34:41;;;;;;;31.47;18.90;;;11.40;99.90;;;;;;5052426;28;20468;-63
2021/09/02 02:37:08;;;;;;;28.43;17.33;;;11.50;99.90;;;;;;5052647;28;20448;-62
2021/09/02 02:39:38;;;;;;;36.47;17.90;;;11.50;99.90;;;;;;5052658;28;20448;-62
2021/09/02 02:42:05;;;;;;;32.50;16.67;;;11.70;99.90;;;;;;5051929;28;20445;-62
2021/09/02 02:44:32;;;;;;;36.97;18.17;;;11.80;99.90;;;;;;5052231;28;20992;-62
2021/09/02 02:46:59;;;;;;;34.27;20.50;;;11.80;99.90;;;;;;5052415;28;20480;-62
2021/09/02 02:49:25;;;;;;;34.53;18.07;;;11.90;99.90;;;;;;5052371;28;20440;-63
2021/09/02 02:51:53;;;;;;;35.20;18.43;;;12.00;99.90;;;;;;5052207;28;20454;-62
2021/09/02 02:54:20;;;;;;;40.10;19.47;;;12.10;99.90;;;;;;5052254;28;20468;-61
2021/09/02 02:56:47;;;;;;;34.07;18.20;;;12.10;99.90;;;;;;5052234;28;20440;-62
2021/09/02 02:59:13;;;;;;;28.20;17.67;;;12.20;99.90;;;;;;5051916;28;20448;-62
2021/09/02 03:01:40;;;;;;;31.13;19.23;;;12.30;99.90;;;;;;5052172;28;20444;-61
2021/09/02 03:04:07;;;;;;;42.77;20.50;;;12.30;99.90;;;;;;5052021;28;20487;-61
2021/09/02 03:06:33;;;;;;;34.47;17.67;;;12.40;99.90;;;;;;5052058;28;20483;-62
2021/09/02 03:09:02;;;;;;;32.03;16.10;;;12.40;99.90;;;;;;5051999;28;20443;-62
2021/09/02 03:11:29;;;;;;;30.57;16.67;;;12.50;99.90;;;;;;5051719;28;20454;-62
2021/09/02 03:13:56;;;;;;;29.40;19.60;;;12.60;99.90;;;;;;5051870;28;20471;-62
2021/09/02 03:16:23;;;;;;;33.77;19.27;;;12.60;99.90;;;;;;5051543;28;20480;-60
2021/09/02 03:18:49;;;;;;;28.17;17.30;;;12.70;99.90;;;;;;5051765;28;20440;-60
2021/09/02 03:21:16;;;;;;;32.43;19.60;;;12.70;99.90;;;;;;5051829;28;20440;-62
2021/09/02 03:23:43;;;;;;;32.40;19.60;;;12.70;99.90;;;;;;5051637;28;20783;-62
2021/09/02 03:26:11;;;;;;;30.13;18.40;;;12.80;99.90;;;;;;5051607;28;20483;-62
2021/09/02 03:28:38;;;;;;;27.13;17.13;;;12.80;99.90;;;;;;5051754;28;20452;-62
2021/09/02 03:31:05;;;;;;;34.87;17.70;;;12.70;99.90;;;;;;5051546;28;20457;-61
2021/09/02 03:33:31;;;;;;;24.23;15.07;;;12.70;99.90;;;;;;5051080;28;20451;-62
2021/09/02 03:35:58;;;;;;;28.53;16.13;;;12.80;99.90;;;;;;5051669;28;20864;-62
2021/09/02 03:38:25;;;;;;;26.60;16.30;;;12.80;99.90;;;;;;5051597;28;20447;-61
2021/09/02 03:40:52;;;;;;;33.37;16.63;;;12.80;99.90;;;;;;5051305;28;20444;-62
2021/09/02 03:43:20;;;;;;;24.40;16.67;;;12.80;99.90;;;;;;5051447;28;20444;-61
2021/09/02 03:45:47;;;;;;;37.27;18.00;;;12.80;99.90;;;;;;5048584;28;20527;-61
2021/09/02 03:48:14;;;;;;;30.40;20.80;;;12.80;99.90;;;;;;5039292;28;20452;-62
2021/09/02 03:50:42;;;;;;;28.10;18.23;;;12.80;99.90;;;;;;5039249;28;20448;-63
2021/09/02 03:53:08;;;;;;;26.97;17.70;;;12.80;99.90;;;;;;5039250;28;20451;-63
2021/09/02 03:55:35;;;;;;;27.23;18.50;;;12.90;99.90;;;;;;5039259;28;20464;-62
2021/09/02 03:58:02;;;;;;;31.17;19.30;;;12.90;99.90;;;;;;5039904;28;20494;-61
2021/09/02 04:00:30;;;;;;;22.27;15.97;;;12.90;99.90;;;;;;5039421;28;20451;-62
2021/09/02 04:02:56;;;;;;;23.60;16.60;;;12.90;99.90;;;;;;5039271;28;20452;-62
2021/09/02 04:05:23;;;;;;;27.33;16.80;;;12.90;99.90;;;;;;5039579;28;21588;-61
2021/09/02 04:07:50;;;;;;;25.80;17.30;;;12.90;99.90;;;;;;5039187;28;20570;-62
2021/09/02 04:10:17;;;;;;;28.73;17.60;;;12.90;99.90;;;;;;5039085;28;20452;-65
2021/09/02 04:12:43;;;;;;;27.50;19.20;;;12.90;99.90;;;;;;5038922;28;20448;-62
2021/09/02 04:15:10;;;;;;;23.60;16.70;;;12.90;99.90;;;;;;5039067;28;20479;-63
2021/09/02 04:17:38;;;;;;;24.20;15.37;;;12.90;99.90;;;;;;5038410;28;20879;-61
2021/09/02 04:20:06;;;;;;;23.37;16.00;;;12.90;99.90;;;;;;5020252;28;20445;-64
2021/09/02 04:22:33;;;;;;;28.83;16.20;;;12.80;99.90;;;;;;5035208;28;20822;-63
2021/09/02 04:24:59;;;;;;;25.30;16.10;;;12.70;99.90;;;;;;5039688;28;21120;-65
2021/09/02 04:27:26;;;;;;;29.37;18.50;;;12.70;99.90;;;;;;5039544;28;20488;-63
2021/09/02 04:29:53;;;;;;;27.13;18.20;;;12.70;99.90;;;;;;5039447;28;20448;-63
2021/09/02 04:32:19;;;;;;;25.80;16.43;;;12.70;99.90;;;;;;5038459;28;21048;-62
2021/09/02 04:34:47;;;;;;;26.37;18.30;;;12.60;99.90;;;;;;5039158;28;20464;-63
2021/09/02 04:37:14;;;;;;;27.17;18.80;;;12.50;99.90;;;;;;5038589;28;20443;-64
2021/09/02 04:39:41;;;;;;;22.90;17.53;;;12.50;99.90;;;;;;5039302;28;20454;-63
2021/09/02 04:42:08;;;;;;;26.10;17.17;;;12.40;99.90;;;;;;5038990;28;20452;-63
2021/09/02 04:44:34;;;;;;;30.40;19.07;;;12.30;99.90;;;;;;5039211;28;20479;-63
2021/09/02 04:47:01;;;;;;;26.77;18.80;;;12.30;99.90;;;;;;5039096;28;20488;-63
2021/09/02 04:49:28;;;;;;;36.93;20.00;;;12.20;99.90;;;;;;5039089;28;20788;-63
2021/09/02 04:51:56;;;;;;;34.30;19.37;;;12.10;99.90;;;;;;5038815;28;20782;-65
2021/09/02 04:54:22;;;;;;;32.43;19.73;;;12.10;99.90;;;;;;5042973;28;20867;-64
2021/09/02 04:56:49;;;;;;;31.57;18.80;;;12.10;99.90;;;;;;5042951;28;20444;-62
2021/09/02 04:59:16;;;;;;;30.20;17.73;;;12.00;99.90;;;;;;5043368;28;20455;-63
2021/09/02 05:01:43;;;;;;;30.70;18.43;;;12.00;99.90;;;;;;5042608;28;21090;-64
2021/09/02 05:04:09;;;;;;;37.60;19.10;;;12.00;99.90;;;;;;5042913;28;20484;-63
2021/09/02 05:06:36;;;;;;;33.50;17.23;;;12.00;99.90;;;;;;5043049;28;20486;-64
2021/09/02 05:09:04;;;;;;;31.63;17.03;;;11.90;99.90;;;;;;5042743;28;20448;-63
2021/09/02 05:11:31;;;;;;;40.27;20.27;;;12.00;99.90;;;;;;5042665;28;20510;-63
2021/09/02 05:13:57;;;;;;;29.00;17.43;;;11.90;99.90;;;;;;5042557;28;21083;-64
2021/09/02 05:16:24;;;;;;;39.13;21.30;;;11.90;99.90;;;;;;5042905;28;20498;-64
2021/09/02 05:18:51;;;;;;;27.23;17.07;;;11.90;99.90;;;;;;5042742;28;20459;-64
2021/09/02 05:21:17;;;;;;;34.60;20.07;;;11.90;99.90;;;;;;5042377;28;21281;-62
2021/09/02 05:23:44;;;;;;;33.57;17.97;;;11.90;99.90;;;;;;5042258;28;20467;-63
2021/09/02 05:26:12;;;;;;;37.37;19.23;;;11.90;99.90;;;;;;5042193;28;20455;-63
2021/09/02 05:28:39;;;;;;;27.03;15.90;;;12.00;99.90;;;;;;5042474;28;21221;-62
2021/09/02 05:31:05;;;;;;;32.23;17.83;;;12.00;99.90;;;;;;5042510;28;20907;-63
2021/09/02 05:33:32;;;;;;;30.73;20.80;;;12.00;99.90;;;;;;5042097;28;20444;-64
2021/09/02 05:35:59;;;;;;;33.03;19.17;;;12.10;99.90;;;;;;5042158;28;20523;-63
2021/09/02 05:38:26;;;;;;;27.17;16.60;;;12.10;99.90;;;;;;5042134;28;20451;-63
2021/09/02 05:40:52;;;;;;;30.23;16.77;;;12.20;99.90;;;;;;5042299;28;20448;-63
2021/09/02 05:43:21;;;;;;;30.20;15.90;;;12.20;99.90;;;;;;5041983;28;20444;-63
2021/09/02 05:45:47;;;;;;;31.27;18.00;;;12.30;99.90;;;;;;5042008;28;20581;-63
2021/09/02 05:48:14;;;;;;;27.50;18.17;;;12.40;99.90;;;;;;5041936;28;20480;-63
2021/09/02 05:50:41;;;;;;;37.83;22.50;;;12.40;99.90;;;;;;5041865;28;20444;-63
2021/09/02 05:53:09;;;;;;;27.10;15.67;;;12.50;99.90;;;;;;5041886;28;20452;-63
2021/09/02 05:55:37;;;;;;;29.57;17.53;;;12.60;99.90;;;;;;5041969;28;21276;-64
2021/09/02 05:58:04;;;;;;;23.80;16.40;;;12.70;99.90;;;;;;5041871;28;20451;-62
2021/09/02 06:00:32;;;;;;;39.50;20.10;;;12.70;99.90;;;;;;5041930;28;20440;-62
2021/09/02 06:02:59;;;;;;;31.33;19.20;;;12.70;99.90;;;;;;5041399;28;20448;-63
2021/09/02 06:05:26;;;;;;;30.13;16.23;;;12.80;99.90;;;;;;5041571;28;20487;-64
2021/09/02 06:07:53;;;;;;;35.03;17.60;;;12.80;99.90;;;;;;5041462;28;21333;-64
2021/09/02 06:10:19;;;;;;;32.57;18.67;;;12.80;99.90;;;;;;5041735;28;20888;-64
2021/09/02 06:12:47;;;;;;;27.37;17.70;;;12.80;99.90;;;;;;5041327;28;20448;-63
2021/09/02 06:15:14;;;;;;;31.13;18.00;;;12.80;99.90;;;;;;5041475;28;20475;-63
2021/09/02 06:17:42;;;;;;;32.13;19.23;;;12.80;99.90;;;;;;5041336;28;20451;-63
2021/09/02 06:20:10;;;;;;;34.57;17.83;;;12.90;99.90;;;;;;5041379;28;20451;-64
2021/09/02 06:22:37;;;;;;;32.33;18.53;;;13.00;99.90;;;;;;5041224;28;20455;-64
2021/09/02 06:25:04;;;;;;;27.23;19.30;;;13.00;99.90;;;;;;5041028;28;20598;-63
2021/09/02 06:27:31;;;;;;;33.20;19.67;;;13.20;99.90;;;;;;5041669;28;20527;-61
2021/09/02 06:29:58;;;;;;;26.20;19.10;;;13.30;99.90;;;;;;5041534;28;20452;-62
2021/09/02 06:32:24;;;;;;;34.40;20.37;;;13.50;99.90;;;;;;5041093;28;20451;-63
2021/09/02 06:34:52;;;;;;;29.33;20.57;;;13.80;99.90;;;;;;5041060;28;21040;-62
2021/09/02 06:37:19;;;;;;;32.00;20.60;;;14.10;99.90;;;;;;5041244;28;20449;-63
2021/09/02 06:39:46;;;;;;;29.33;18.27;;;14.40;99.90;;;;;;5041280;28;20455;-63
2021/09/02 06:42:12;;;;;;;31.17;19.43;;;14.70;99.90;;;;;;5040960;28;20451;-63
2021/09/02 06:44:39;;;;;;;24.07;19.27;;;14.90;99.90;;;;;;5040738;28;21285;-62
2021/09/02 06:47:06;;;;;;;26.97;19.20;;;15.00;99.90;;;;;;5040737;28;20480;-63
2021/09/02 06:49:33;;;;;;;25.10;18.37;;;15.10;99.90;;;;;;5040488;28;20444;-63
2021/09/02 06:52:01;;;;;;;23.13;17.77;;;15.20;99.90;;;;;;5040653;28;20452;-62
2021/09/02 06:54:27;;;;;;;26.17;18.10;;;15.20;99.90;;;;;;5040821;28;20468;-64
2021/09/02 06:56:54;;;;;;;25.63;17.90;;;15.40;99.90;;;;;;5040936;28;20868;-59
2021/09/02 06:59:21;;;;;;;25.77;17.53;;;15.50;99.90;;;;;;5040911;28;20448;-59
2021/09/02 07:01:48;;;;;;;28.30;15.60;;;15.60;99.90;;;;;;5040677;28;20455;-58
2021/09/02 07:04:15;;;;;;;26.30;16.40;;;15.70;99.90;;;;;;5040581;28;20512;-59
2021/09/02 07:06:42;;;;;;;19.73;15.70;;;15.90;99.90;;;;;;5040655;28;20494;-58
2021/09/02 07:09:10;;;;;;;21.70;16.70;;;16.10;99.90;;;;;;5040694;28;20448;-58
2021/09/02 07:11:37;;;;;;;18.50;16.47;;;16.30;99.90;;;;;;5040351;28;21151;-57
2021/09/02 07:14:04;;;;;;;21.90;18.27;;;16.60;99.90;;;;;;5040473;28;20490;-57
2021/09/02 07:16:31;;;;;;;22.20;17.57;;;16.80;99.90;;;;;;5039949;28;20530;-60
2021/09/02 07:18:58;;;;;;;20.53;16.40;;;16.90;99.90;;;;;;5040396;28;20522;-58
2021/09/02 07:21:24;;;;;;;20.83;18.67;;;17.10;99.90;;;;;;5040210;28;20455;-59
2021/09/02 07:23:51;;;;;;;22.97;18.57;;;17.10;99.90;;;;;;5040521;28;20949;-62
2021/09/02 07:26:19;;;;;;;21.37;18.83;;;17.30;99.90;;;;;;5040323;28;21127;-59
2021/09/02 07:28:46;;;;;;;23.97;21.43;;;17.40;99.90;;;;;;5040190;28;20506;-60
2021/09/02 07:31:13;;;;;;;23.90;20.53;;;17.40;99.90;;;;;;5040179;28;20447;-61
2021/09/02 07:33:39;;;;;;;20.37;18.43;;;17.40;99.90;;;;;;5039838;28;20460;-62
2021/09/02 07:36:06;;;;;;;22.27;20.17;;;17.60;99.90;;;;;;5040231;28;20912;-58
2021/09/02 07:38:33;;;;;;;20.70;18.97;;;17.60;99.90;;;;;;5040090;28;20451;-58
2021/09/02 07:40:59;;;;;;;22.23;20.33;;;17.60;99.90;;;;;;5039734;28;20451;-61
2021/09/02 07:43:27;;;;;;;22.43;20.63;;;17.80;99.90;;;;;;5039969;28;20448;-59
2021/09/02 07:45:54;;;;;;;21.50;19.70;;;18.00;99.90;;;;;;5040125;28;20827;-58
2021/09/02 07:48:21;;;;;;;22.40;20.30;;;17.90;99.90;;;;;;5039744;28;21098;-57
2021/09/02 07:50:48;;;;;;;21.53;19.27;;;17.90;99.90;;;;;;5039947;28;20445;-58
2021/09/02 07:53:14;;;;;;;20.40;18.90;;;17.90;99.90;;;;;;5039790;28;20451;-60
2021/09/02 07:55:41;;;;;;;23.87;21.73;;;17.90;99.90;;;;;;5040070;28;20480;-57
2021/09/02 07:58:08;;;;;;;20.57;18.83;;;17.90;99.90;;;;;;5039826;28;20444;-60
2021/09/02 08:00:37;;;;;;;21.13;19.50;;;17.90;99.90;;;;;;5039861;28;20444;-63
2021/09/02 08:03:04;;;;;;;21.70;19.80;;;17.80;99.90;;;;;;5039771;28;21105;-57
2021/09/02 08:05:31;;;;;;;22.27;20.63;;;17.90;99.90;;;;;;5039641;28;21213;-62
2021/09/02 08:07:57;;;;;;;21.80;20.00;;;17.80;99.90;;;;;;5039835;28;20475;-59
2021/09/02 08:10:26;;;;;;;24.10;22.07;;;17.80;99.90;;;;;;5040109;28;20455;-62
2021/09/02 08:12:54;;;;;;;22.10;20.60;;;17.70;99.90;;;;;;5039808;28;20459;-60
2021/09/02 08:15:21;;;;;;;22.50;20.70;;;17.80;99.90;;;;;;5039748;28;21074;-60
2021/09/02 08:17:49;;;;;;;25.60;23.33;;;17.80;99.90;;;;;;5039672;28;20444;-61
2021/09/02 08:20:18;;;;;;;22.43;20.50;;;17.80;99.90;;;;;;5039813;28;20459;-59
2021/09/02 08:22:46;;;;;;;22.07;20.23;;;17.80;99.90;;;;;;5039533;28;20452;-60
2021/09/02 08:25:14;;;;;;;22.30;20.20;;;17.80;99.90;;;;;;5039635;28;20472;-63
2021/09/02 08:27:44;;;;;;;25.00;22.90;;;17.90;99.90;;;;;;5042831;28;20484;-58
2021/09/02 08:30:12;;;;;;;24.37;22.50;;;17.90;99.90;;;;;;5043538;28;21234;-59
2021/09/02 08:32:38;;;;;;;23.83;21.53;;;18.00;99.90;;;;;;5043216;28;20931;-58
2021/09/02 08:35:07;;;;;;;24.23;21.77;;;18.10;99.90;;;;;;5043487;28;20478;-59
2021/09/02 08:37:34;;;;;;;23.93;21.97;;;18.10;99.90;;;;;;5043315;28;20460;-58
2021/09/02 08:40:01;;;;;;;24.97;22.80;;;18.20;99.90;;;;;;5043267;28;20448;-59
2021/09/02 08:42:27;;;;;;;23.37;21.63;;;18.20;99.90;;;;;;5043234;28;20523;-57
2021/09/02 08:44:54;;;;;;;24.10;22.30;;;18.40;99.90;;;;;;5043191;28;21213;-60
2021/09/02 08:47:21;;;;;;;21.60;20.20;;;18.50;99.90;;;;;;5043122;28;20448;-61
2021/09/02 08:49:48;;;;;;;24.57;22.37;;;18.60;99.90;;;;;;5043315;28;20460;-59
2021/09/02 08:52:17;;;;;;;24.97;22.80;;;18.70;99.90;;;;;;5043088;28;20533;-61
2021/09/02 08:54:43;;;;;;;24.67;22.37;;;18.70;99.90;;;;;;5043137;28;20464;-59
2021/09/02 08:57:10;;;;;;;25.13;23.07;;;18.70;99.90;;;;;;5043168;28;20491;-61
2021/09/02 08:59:37;;;;;;;24.67;22.43;;;18.80;99.90;;;;;;5042911;28;20441;-61
2021/09/02 09:02:22;;;;;;;24.30;22.30;;;18.90;99.90;;;;;;5042838;28;21086;-61
2021/09/02 09:05:00;;;;;;;24.93;22.90;;;19.00;99.90;;;;;;5043049;28;20472;-61
2021/09/02 09:07:30;;;;;;;26.60;24.20;;;19.20;99.90;;;;;;5042994;28;20503;-63
2021/09/02 09:09:57;;;;;;;23.73;21.80;;;19.10;99.90;;;;;;5043393;28;20448;-60
2021/09/02 09:12:35;;;;;;;25.23;23.43;;;19.10;99.90;;;;;;5042581;28;20555;-60
2021/09/02 09:15:03;;;;;;;27.10;24.80;;;19.10;99.90;;;;;;5042881;28;20479;-61
2021/09/02 09:17:30;;;;;;;24.43;22.63;;;19.10;99.90;;;;;;5042719;28;20464;-60
2021/09/02 09:19:57;;;;;;;24.87;23.10;;;19.10;99.90;;;;;;5042808;28;20478;-61
2021/09/02 09:22:25;;;;;;;24.60;22.80;;;19.30;99.90;;;;;;5042391;28;21068;-60
2021/09/02 09:24:55;;;;;;;26.67;24.30;;;19.40;99.90;;;;;;5042625;28;20905;-61
2021/09/02 09:27:23;;;;;;;25.23;23.20;;;19.50;99.90;;;;;;5042707;28;20455;-62
2021/09/02 09:30:15;;;;;;;24.23;22.33;;;19.60;99.90;;;;;;5042681;28;20451;-60
2021/09/02 09:32:46;;;;;;;27.27;25.23;;;19.80;99.90;;;;;;5042236;28;21035;-61
2021/09/02 09:35:16;;;;;;;26.97;25.27;;;20.00;99.90;;;;;;5042352;28;20476;-61
2021/09/02 09:37:43;;;;;;;28.70;26.37;;;20.10;99.90;;;;;;5041560;28;21106;-61
2021/09/02 09:40:17;;;;;;;26.97;24.67;;;20.10;99.90;;;;;;5042253;28;21150;-61
2021/09/02 09:43:05;;;;;;;25.60;23.70;;;20.10;99.90;;;;;;5041928;28;20451;-61
2021/09/02 09:45:44;;;;;;;24.10;21.97;;;20.30;99.90;;;;;;5041977;28;20479;-57
2021/09/02 09:48:36;;;;;;;23.83;22.20;;;20.30;99.90;;;;;;5042043;28;20488;-58
2021/09/02 09:51:12;;;;;;;24.70;22.93;;;20.30;99.90;;;;;;5041918;28;20444;-61
2021/09/02 09:53:39;;;;;;;24.03;22.33;;;20.50;99.90;;;;;;5042031;28;20447;-58
2021/09/02 09:56:09;;;;;;;25.10;23.40;;;20.60;99.90;;;;;;5042038;28;20636;-60
2021/09/02 09:58:36;;;;;;;24.50;22.87;;;20.80;99.90;;;;;;5042028;28;20447;-60
2021/09/02 10:01:05;;;;;;;26.80;24.90;;;21.00;99.90;;;;;;5041612;28;20451;-57
2021/09/02 10:03:33;;;;;;;26.37;23.90;;;21.10;99.90;;;;;;5041864;28;20971;-58
2021/09/02 10:06:05;;;;;;;26.43;24.57;;;21.30;99.90;;;;;;5041261;22;20493;-65
2021/09/02 10:08:34;;;;;;;25.53;23.50;;;21.50;99.90;;;;;;5021877;28;20489;-64
2021/09/02 10:11:03;;;;;;;25.23;23.53;;;21.40;99.90;;;;;;5021548;28;20887;-65
2021/09/02 10:13:32;;;;;;;27.60;25.67;;;21.50;99.90;;;;;;5021735;28;20456;-65
2021/09/02 10:15:59;;;;;;;25.80;23.60;;;21.70;99.90;;;;;;5021412;28;20469;-65
2021/09/02 10:18:28;;;;;;;25.77;23.87;;;21.80;99.90;;;;;;5021630;28;20445;-65
2021/09/02 10:20:56;;;;;;;25.80;24.10;;;21.90;99.90;;;;;;5021605;28;20444;-65
2021/09/02 10:23:24;;;;;;;26.40;24.43;;;21.90;99.90;;;;;;5021320;28;20452;-66
2021/09/02 10:25:51;;;;;;;25.20;23.70;;;22.20;99.90;;;;;;5021542;28;20468;-64
2021/09/02 10:28:24;;;;;;;27.07;25.53;;;22.60;99.90;;;;;;5021611;28;20480;-65
2021/09/02 10:30:54;;;;;;;26.63;25.13;;;22.90;99.90;;;;;;5021491;28;20456;-64
2021/09/02 10:33:37;;;;;;;28.57;26.67;;;23.20;99.90;;;;;;5021451;28;20987;-65
2021/09/02 10:36:42;;;;;;;29.20;27.10;;;23.50;99.90;;;;;;5021377;28;20473;-66
2021/09/02 10:39:09;;;;;;;28.47;25.63;;;23.50;99.90;;;;;;5021537;28;20449;-66
2021/09/02 10:41:49;;;;;;;27.37;25.77;;;23.70;99.90;;;;;;5021170;28;20449;-66
2021/09/02 10:44:19;;;;;;;26.23;24.63;;;23.80;99.90;;;;;;5021035;28;20476;-66
2021/09/02 10:46:46;;;;;;;25.97;24.13;;;23.80;99.90;;;;;;5021016;28;20468;-67
2021/09/02 10:49:22;;;;;;;23.93;22.63;;;23.70;99.90;;;;;;5020695;28;20612;-66
2021/09/02 10:51:52;;;;;;;26.07;24.30;;;23.90;99.90;;;;;;5020244;28;20449;-67
2021/09/02 10:54:23;;;;;;;25.27;23.77;;;24.20;99.90;;;;;;5021023;28;20473;-67
2021/09/02 10:56:58;;;;;;;26.07;24.47;;;24.30;99.40;;;;;;5020849;28;20455;-67
2021/09/02 10:59:53;;;;;;;26.47;24.97;;;24.50;98.60;;;;;;5020849;28;20520;-64
2021/09/02 11:02:42;;;;;;;27.43;25.97;;;24.80;98.20;;;;;;5020493;28;20449;-67
2021/09/02 11:05:15;;;;;;;26.27;24.93;;;24.70;96.50;;;;;;5020899;28;20960;-67
2021/09/02 11:07:45;;;;;;;28.30;26.60;;;24.60;95.30;;;;;;5001176;28;21252;-67
2021/09/02 11:10:17;;;;;;;27.30;25.77;;;24.80;95.30;;;;;;5009982;28;20481;-67
2021/09/02 11:12:44;;;;;;;27.17;25.67;;;24.60;95.00;;;;;;5020621;28;20575;-67
2021/09/02 11:15:21;;;;;;;28.23;26.60;;;25.00;94.10;;;;;;5020539;28;20472;-67
2021/09/02 11:17:52;;;;;;;28.13;26.43;;;26.10;92.40;;;;;;5020640;28;20453;-67
2021/09/02 11:20:20;;;;;;;26.60;25.30;;;27.20;90.00;;;;;;5020427;28;20528;-67
2021/09/02 11:22:49;;;;;;;28.80;27.43;;;28.40;80.10;;;;;;5020438;28;20500;-64
2021/09/02 11:25:15;;;;;;;28.97;27.37;;;28.90;74.40;;;;;;5020479;28;20519;-65
2021/09/02 11:27:42;;;;;;;27.60;26.30;;;28.90;64.70;;;;;;5020461;28;20452;-65
2021/09/02 11:30:14;;;;;;;26.80;25.40;;;29.00;62.80;;;;;;5020259;28;20476;-65
2021/09/02 11:32:41;;;;;;;27.97;26.50;;;29.80;61.40;;;;;;5020257;28;20456;-65
2021/09/02 11:35:09;;;;;;;28.03;26.53;;;31.10;58.80;;;;;;5019746;28;20472;-66
2021/09/02 11:37:40;;;;;;;28.17;26.90;;;32.40;54.10;;;;;;5019906;28;21238;-65
2021/09/02 11:40:10;;;;;;;28.73;27.20;;;34.20;49.10;;;;;;5019773;28;20475;-65
2021/09/02 11:42:37;;;;;;;27.77;26.48;;;35.40;46.00;;;;;;5020135;28;20209;-66
2021/09/02 11:45:05;;;;;;;28.08;26.77;;;37.70;41.90;;;;;;5020046;28;20234;-66
2021/09/02 11:47:36;;;;;;;26.95;25.75;;;39.30;37.30;;;;;;5020098;28;20205;-64
2021/09/02 11:50:05;;;;;;;29.40;28.10;;;39.10;35.80;;;;;;5020137;28;20221;-66
2021/09/02 11:52:40;;;;;;;28.30;26.83;;;41.00;33.50;;;;;;5019702;28;20771;-65
2021/09/02 11:55:12;;;;;;;28.00;26.80;;;42.50;31.50;;;;;;5020034;28;20595;-65
2021/09/02 11:57:39;;;;;;;28.33;26.92;;;43.70;29.80;;;;;;5020287;28;20288;-65
2021/09/02 12:00:07;;;;;;;28.40;27.00;;;44.00;28.40;;;;;;5020208;28;20206;-66
2021/09/02 12:02:35;;;;;;;28.40;27.02;;;44.40;28.00;;;;;;5019511;28;20237;-65
2021/09/02 12:05:02;;;;;;;29.05;27.58;;;44.10;27.20;;;;;;5019667;28;20244;-66
2021/09/02 12:07:33;;;;;;;28.58;27.27;;;44.40;27.70;;;;;;5019882;28;20205;-66
2021/09/02 12:10:01;;;;;;;28.58;27.38;;;45.90;26.60;;;;;;5019887;28;20336;-66
2021/09/02 12:12:31;;;;;;;29.48;28.17;;;46.80;25.80;;;;;;5019679;28;20210;-66
2021/09/02 12:14:58;;;;;;;29.45;27.90;;;47.20;25.30;;;;;;5019787;28;20343;-66
2021/09/02 12:17:32;;;;;;;29.10;27.70;;;48.00;24.80;;;;;;5019787;28;20206;-66
2021/09/02 12:20:01;;;;;;;27.65;26.42;;;48.70;24.20;;;;;;5020060;28;21030;-66
2021/09/02 12:22:33;;;;;;;28.23;27.08;;;49.10;23.90;;;;;;5019655;28;20248;-66
2021/09/02 12:25:11;;;;;;;29.15;27.85;;;49.60;23.70;;;;;;5019841;28;20591;-66
2021/09/02 12:27:44;;;;;;;28.25;27.05;;;50.00;23.20;;;;;;5019879;28;20289;-66
2021/09/02 12:30:11;;;;;;;28.05;26.95;;;49.80;22.30;;;;;;5020075;28;20824;-66
2021/09/02 12:32:38;;;;;;;27.10;26.00;;;50.20;22.40;;;;;;5019491;28;20213;-66
2021/09/02 12:35:13;;;;;;;27.80;26.70;;;50.90;22.30;;;;;;5019246;28;20238;-66